sensor_id;sensor_type;location;lat;lon;timestamp;P1;durP1;ratioP1;P2;durP2;ratioP2
56343;SDS011;42245;42.058;24.700;2024-01-10T04:57:43;17.20;;;9.77;;
56343;SDS011;42245;42.058;24.700;2024-01-10T05:00:09;18.83;;;10.13;;
56343;SDS011;42245;42.058;24.700;2024-01-10T05:02:35;22.33;;;11.87;;
56343;SDS011;42245;42.058;24.700;2024-01-10T05:05:00;23.67;;;12.57;;
56343;SDS011;42245;42.058;24.700;2024-01-10T05:07:26;23.13;;;12.60;;
56343;SDS011;42245;42.058;24.700;2024-01-10T05:09:51;33.77;;;13.23;;
56343;SDS011;42245;42.058;24.700;2024-01-10T05:12:17;24.00;;;13.47;;
56343;SDS011;42245;42.058;24.700;2024-01-10T05:14:43;27.33;;;14.87;;
56343;SDS011;42245;42.058;24.700;2024-01-10T05:17:08;27.20;;;15.43;;
56343;SDS011;42245;42.058;24.700;2024-01-10T05:19:33;27.50;;;15.20;;
56343;SDS011;42245;42.058;24.700;2024-01-10T05:21:59;28.43;;;15.67;;
56343;SDS011;42245;42.058;24.700;2024-01-10T05:24:24;29.17;;;16.93;;
56343;SDS011;42245;42.058;24.700;2024-01-10T05:26:50;30.87;;;17.27;;
56343;SDS011;42245;42.058;24.700;2024-01-10T05:29:16;27.30;;;14.50;;
56343;SDS011;42245;42.058;24.700;2024-01-10T05:31:44;30.53;;;16.10;;
56343;SDS011;42245;42.058;24.700;2024-01-10T05:34:09;31.20;;;17.58;;
56343;SDS011;42245;42.058;24.700;2024-01-10T05:36:34;26.63;;;13.50;;
56343;SDS011;42245;42.058;24.700;2024-01-10T05:39:00;21.63;;;11.90;;
56343;SDS011;42245;42.058;24.700;2024-01-10T05:41:25;17.60;;;10.00;;
56343;SDS011;42245;42.058;24.700;2024-01-10T05:43:51;19.20;;;9.23;;
56343;SDS011;42245;42.058;24.700;2024-01-10T05:46:16;12.60;;;7.40;;
56343;SDS011;42245;42.058;24.700;2024-01-10T05:48:42;13.33;;;6.70;;
56343;SDS011;42245;42.058;24.700;2024-01-10T05:51:07;11.73;;;6.33;;
56343;SDS011;42245;42.058;24.700;2024-01-10T05:53:33;10.67;;;6.40;;
56343;SDS011;42245;42.058;24.700;2024-01-10T05:55:58;10.27;;;6.80;;
56343;SDS011;42245;42.058;24.700;2024-01-10T05:58:24;10.30;;;6.43;;
56343;SDS011;42245;42.058;24.700;2024-01-10T06:00:49;10.13;;;5.97;;
56343;SDS011;42245;42.058;24.700;2024-01-10T06:03:15;10.67;;;6.17;;
56343;SDS011;42245;42.058;24.700;2024-01-10T06:05:40;12.70;;;7.17;;
56343;SDS011;42245;42.058;24.700;2024-01-10T06:08:05;11.97;;;6.63;;
56343;SDS011;42245;42.058;24.700;2024-01-10T06:10:31;10.77;;;5.67;;
56343;SDS011;42245;42.058;24.700;2024-01-10T06:12:57;7.20;;;4.97;;
56343;SDS011;42245;42.058;24.700;2024-01-10T06:15:22;9.67;;;5.40;;
56343;SDS011;42245;42.058;24.700;2024-01-10T06:17:48;8.80;;;5.23;;
56343;SDS011;42245;42.058;24.700;2024-01-10T06:20:15;8.83;;;4.83;;
56343;SDS011;42245;42.058;24.700;2024-01-10T06:22:40;9.43;;;5.20;;
56343;SDS011;42245;42.058;24.700;2024-01-10T06:25:06;11.53;;;5.83;;
56343;SDS011;42245;42.058;24.700;2024-01-10T06:27:32;8.87;;;5.23;;
56343;SDS011;42245;42.058;24.700;2024-01-10T06:29:57;8.97;;;5.40;;
56343;SDS011;42245;42.058;24.700;2024-01-10T06:32:23;8.73;;;4.93;;
56343;SDS011;42245;42.058;24.700;2024-01-10T06:34:48;9.30;;;4.97;;
56343;SDS011;42245;42.058;24.700;2024-01-10T06:37:14;6.77;;;4.10;;
56343;SDS011;42245;42.058;24.700;2024-01-10T06:39:39;9.33;;;4.50;;
56343;SDS011;42245;42.058;24.700;2024-01-10T06:42:06;9.33;;;4.97;;
56343;SDS011;42245;42.058;24.700;2024-01-10T06:44:33;6.63;;;4.17;;
56343;SDS011;42245;42.058;24.700;2024-01-10T06:46:58;8.40;;;4.20;;
56343;SDS011;42245;42.058;24.700;2024-01-10T06:49:24;7.03;;;4.70;;
56343;SDS011;42245;42.058;24.700;2024-01-10T06:51:49;7.80;;;4.50;;
56343;SDS011;42245;42.058;24.700;2024-01-10T06:54:15;9.47;;;4.87;;
56343;SDS011;42245;42.058;24.700;2024-01-10T06:56:40;6.37;;;4.07;;
56343;SDS011;42245;42.058;24.700;2024-01-10T06:59:06;8.57;;;4.73;;
56343;SDS011;42245;42.058;24.700;2024-01-10T07:01:31;8.57;;;4.87;;
56343;SDS011;42245;42.058;24.700;2024-01-10T07:03:57;9.70;;;4.60;;
56343;SDS011;42245;42.058;24.700;2024-01-10T07:06:22;7.07;;;4.40;;
56343;SDS011;42245;42.058;24.700;2024-01-10T07:08:48;10.27;;;5.07;;
56343;SDS011;42245;42.058;24.700;2024-01-10T07:11:15;8.00;;;5.23;;
56343;SDS011;42245;42.058;24.700;2024-01-10T07:13:44;10.63;;;4.93;;
56343;SDS011;42245;42.058;24.700;2024-01-10T07:16:10;11.47;;;5.87;;
56343;SDS011;42245;42.058;24.700;2024-01-10T07:18:36;9.40;;;5.03;;
56343;SDS011;42245;42.058;24.700;2024-01-10T07:21:01;9.17;;;5.00;;
56343;SDS011;42245;42.058;24.700;2024-01-10T07:23:27;10.50;;;5.50;;
56343;SDS011;42245;42.058;24.700;2024-01-10T07:25:52;9.97;;;5.80;;
56343;SDS011;42245;42.058;24.700;2024-01-10T07:28:18;10.53;;;5.83;;
56343;SDS011;42245;42.058;24.700;2024-01-10T07:30:44;11.30;;;5.67;;
56343;SDS011;42245;42.058;24.700;2024-01-10T07:33:10;14.70;;;7.47;;
56343;SDS011;42245;42.058;24.700;2024-01-10T07:35:36;15.30;;;7.00;;
56343;SDS011;42245;42.058;24.700;2024-01-10T07:38:03;16.07;;;8.03;;
56343;SDS011;42245;42.058;24.700;2024-01-10T07:40:29;17.00;;;8.23;;
56343;SDS011;42245;42.058;24.700;2024-01-10T07:42:54;16.47;;;8.70;;
56343;SDS011;42245;42.058;24.700;2024-01-10T07:45:20;15.97;;;9.37;;
56343;SDS011;42245;42.058;24.700;2024-01-10T07:47:46;19.87;;;9.83;;
56343;SDS011;42245;42.058;24.700;2024-01-10T07:50:12;18.53;;;9.13;;
56343;SDS011;42245;42.058;24.700;2024-01-10T07:52:39;18.07;;;9.10;;
56343;SDS011;42245;42.058;24.700;2024-01-10T07:55:05;18.50;;;9.80;;
56343;SDS011;42245;42.058;24.700;2024-01-10T07:57:31;20.03;;;10.40;;
56343;SDS011;42245;42.058;24.700;2024-01-10T07:59:58;20.20;;;10.57;;
56343;SDS011;42245;42.058;24.700;2024-01-10T08:02:24;18.43;;;10.43;;
56343;SDS011;42245;42.058;24.700;2024-01-10T08:04:49;20.90;;;10.67;;
56343;SDS011;42245;42.058;24.700;2024-01-10T08:07:16;22.00;;;11.77;;
56343;SDS011;42245;42.058;24.700;2024-01-10T08:09:41;21.80;;;11.80;;
56343;SDS011;42245;42.058;24.700;2024-01-10T08:12:07;23.67;;;12.10;;
56343;SDS011;42245;42.058;24.700;2024-01-10T08:14:33;27.00;;;12.83;;
56343;SDS011;42245;42.058;24.700;2024-01-10T08:16:58;20.20;;;11.50;;
56343;SDS011;42245;42.058;24.700;2024-01-10T08:19:25;20.40;;;12.07;;
56343;SDS011;42245;42.058;24.700;2024-01-10T08:21:54;20.87;;;10.53;;
56343;SDS011;42245;42.058;24.700;2024-01-10T08:24:20;20.00;;;10.77;;
56343;SDS011;42245;42.058;24.700;2024-01-10T08:26:46;17.83;;;10.70;;
56343;SDS011;42245;42.058;24.700;2024-01-10T08:29:17;18.00;;;9.17;;
56343;SDS011;42245;42.058;24.700;2024-01-10T08:31:46;18.60;;;10.27;;
56343;SDS011;42245;42.058;24.700;2024-01-10T08:34:11;16.17;;;9.80;;
56343;SDS011;42245;42.058;24.700;2024-01-10T08:36:37;17.90;;;9.40;;
56343;SDS011;42245;42.058;24.700;2024-01-10T08:39:03;17.10;;;10.20;;
56343;SDS011;42245;42.058;24.700;2024-01-10T08:41:29;17.07;;;9.37;;
56343;SDS011;42245;42.058;24.700;2024-01-10T08:43:55;15.57;;;9.63;;
56343;SDS011;42245;42.058;24.700;2024-01-10T08:46:20;18.57;;;9.77;;
56343;SDS011;42245;42.058;24.700;2024-01-10T08:48:46;18.40;;;8.97;;
56343;SDS011;42245;42.058;24.700;2024-01-10T08:51:12;18.43;;;9.63;;
56343;SDS011;42245;42.058;24.700;2024-01-10T08:53:41;16.83;;;9.87;;
56343;SDS011;42245;42.058;24.700;2024-01-10T08:56:07;14.83;;;8.67;;
56343;SDS011;42245;42.058;24.700;2024-01-10T08:58:32;14.97;;;9.10;;
56343;SDS011;42245;42.058;24.700;2024-01-10T09:00:58;17.07;;;10.30;;
56343;SDS011;42245;42.058;24.700;2024-01-10T09:03:23;19.00;;;10.40;;
56343;SDS011;42245;42.058;24.700;2024-01-10T09:05:48;23.53;;;12.40;;
56343;SDS011;42245;42.058;24.700;2024-01-10T09:08:14;20.30;;;12.53;;
56343;SDS011;42245;42.058;24.700;2024-01-10T09:10:40;29.40;;;14.93;;
56343;SDS011;42245;42.058;24.700;2024-01-10T09:13:06;28.13;;;15.50;;
56343;SDS011;42245;42.058;24.700;2024-01-10T09:15:32;23.83;;;14.53;;
56343;SDS011;42245;42.058;24.700;2024-01-10T09:17:57;25.97;;;15.50;;
56343;SDS011;42245;42.058;24.700;2024-01-10T09:20:23;26.63;;;15.27;;
56343;SDS011;42245;42.058;24.700;2024-01-10T09:22:48;27.93;;;16.53;;
56343;SDS011;42245;42.058;24.700;2024-01-10T09:25:14;28.50;;;17.50;;
56343;SDS011;42245;42.058;24.700;2024-01-10T09:27:39;27.23;;;15.87;;
56343;SDS011;42245;42.058;24.700;2024-01-10T09:30:09;24.43;;;15.63;;
56343;SDS011;42245;42.058;24.700;2024-01-10T09:32:35;26.13;;;15.23;;
56343;SDS011;42245;42.058;24.700;2024-01-10T09:35:00;26.07;;;14.33;;
56343;SDS011;42245;42.058;24.700;2024-01-10T09:37:26;29.27;;;14.73;;
56343;SDS011;42245;42.058;24.700;2024-01-10T09:39:52;23.67;;;14.27;;
56343;SDS011;42245;42.058;24.700;2024-01-10T09:42:18;27.27;;;14.23;;
56343;SDS011;42245;42.058;24.700;2024-01-10T09:44:44;23.67;;;14.83;;
56343;SDS011;42245;42.058;24.700;2024-01-10T09:47:10;26.23;;;16.20;;
56343;SDS011;42245;42.058;24.700;2024-01-10T09:49:37;27.70;;;16.20;;
56343;SDS011;42245;42.058;24.700;2024-01-10T09:52:03;24.23;;;14.37;;
56343;SDS011;42245;42.058;24.700;2024-01-10T09:54:30;29.93;;;17.20;;
56343;SDS011;42245;42.058;24.700;2024-01-10T09:56:56;25.53;;;15.13;;
56343;SDS011;42245;42.058;24.700;2024-01-10T09:59:22;26.43;;;15.13;;
56343;SDS011;42245;42.058;24.700;2024-01-10T10:01:48;26.43;;;15.53;;
56343;SDS011;42245;42.058;24.700;2024-01-10T10:04:13;25.63;;;15.30;;
56343;SDS011;42245;42.058;24.700;2024-01-10T10:06:41;30.83;;;17.20;;
56343;SDS011;42245;42.058;24.700;2024-01-10T10:09:07;28.07;;;16.83;;
56343;SDS011;42245;42.058;24.700;2024-01-10T10:11:33;29.57;;;17.03;;
56343;SDS011;42245;42.058;24.700;2024-01-10T10:14:13;29.73;;;18.60;;
56343;SDS011;42245;42.058;24.700;2024-01-10T10:16:39;29.77;;;17.70;;
56343;SDS011;42245;42.058;24.700;2024-01-10T10:19:06;31.20;;;17.40;;
56343;SDS011;42245;42.058;24.700;2024-01-10T10:21:31;32.50;;;18.07;;
56343;SDS011;42245;42.058;24.700;2024-01-10T10:23:59;31.00;;;17.97;;
56343;SDS011;42245;42.058;24.700;2024-01-10T10:26:26;32.17;;;17.87;;
56343;SDS011;42245;42.058;24.700;2024-01-10T10:28:52;36.13;;;18.50;;
56343;SDS011;42245;42.058;24.700;2024-01-10T10:31:19;33.37;;;18.53;;
56343;SDS011;42245;42.058;24.700;2024-01-10T10:33:45;36.93;;;19.30;;
56343;SDS011;42245;42.058;24.700;2024-01-10T10:36:14;33.33;;;18.67;;
56343;SDS011;42245;42.058;24.700;2024-01-10T10:38:40;31.20;;;18.23;;
56343;SDS011;42245;42.058;24.700;2024-01-10T10:41:06;33.57;;;18.53;;
56343;SDS011;42245;42.058;24.700;2024-01-10T10:43:39;33.10;;;18.47;;
56343;SDS011;42245;42.058;24.700;2024-01-10T10:46:05;34.23;;;18.27;;
56343;SDS011;42245;42.058;24.700;2024-01-10T10:48:34;33.07;;;18.77;;
56343;SDS011;42245;42.058;24.700;2024-01-10T10:53:43;36.93;;;19.27;;
56343;SDS011;42245;42.058;24.700;2024-01-10T10:56:12;34.60;;;19.80;;
56343;SDS011;42245;42.058;24.700;2024-01-10T10:58:39;57.70;;;28.57;;
56343;SDS011;42245;42.058;24.700;2024-01-10T11:01:06;39.97;;;23.53;;
56343;SDS011;42245;42.058;24.700;2024-01-10T11:03:36;34.00;;;21.57;;
56343;SDS011;42245;42.058;24.700;2024-01-10T11:06:03;32.70;;;16.70;;
56343;SDS011;42245;42.058;24.700;2024-01-10T11:08:34;32.63;;;18.43;;
56343;SDS011;42245;42.058;24.700;2024-01-10T11:11:02;30.23;;;16.37;;
56343;SDS011;42245;42.058;24.700;2024-01-10T11:24:29;31.27;;;17.63;;
56343;SDS011;42245;42.058;24.700;2024-01-10T11:27:13;26.83;;;14.57;;
56343;SDS011;42245;42.058;24.700;2024-01-10T11:29:40;36.73;;;21.33;;
56343;SDS011;42245;42.058;24.700;2024-01-10T11:32:07;28.37;;;17.17;;
56343;SDS011;42245;42.058;24.700;2024-01-10T11:34:38;33.17;;;19.73;;
56343;SDS011;42245;42.058;24.700;2024-01-10T11:37:13;31.53;;;17.23;;
56343;SDS011;42245;42.058;24.700;2024-01-10T11:39:42;28.50;;;17.17;;
56343;SDS011;42245;42.058;24.700;2024-01-10T11:42:09;29.67;;;17.20;;
56343;SDS011;42245;42.058;24.700;2024-01-10T11:44:47;47.40;;;25.40;;
56343;SDS011;42245;42.058;24.700;2024-01-10T11:47:16;27.33;;;16.90;;
56343;SDS011;42245;42.058;24.700;2024-01-10T11:49:53;26.50;;;14.87;;
56343;SDS011;42245;42.058;24.700;2024-01-10T11:52:22;22.27;;;13.33;;
56343;SDS011;42245;42.058;24.700;2024-01-10T11:54:49;29.33;;;14.90;;
56343;SDS011;42245;42.058;24.700;2024-01-10T11:57:21;34.87;;;19.77;;
56343;SDS011;42245;42.058;24.700;2024-01-10T11:59:50;29.43;;;18.20;;
56343;SDS011;42245;42.058;24.700;2024-01-10T12:02:19;22.37;;;13.57;;
56343;SDS011;42245;42.058;24.700;2024-01-10T12:04:45;20.47;;;12.27;;
56343;SDS011;42245;42.058;24.700;2024-01-10T12:07:11;20.57;;;12.27;;
56343;SDS011;42245;42.058;24.700;2024-01-10T12:09:38;21.23;;;12.77;;
56343;SDS011;42245;42.058;24.700;2024-01-10T12:12:04;21.10;;;13.20;;
56343;SDS011;42245;42.058;24.700;2024-01-10T12:14:30;24.93;;;15.20;;
56343;SDS011;42245;42.058;24.700;2024-01-10T12:16:58;23.40;;;14.17;;
56343;SDS011;42245;42.058;24.700;2024-01-10T12:19:24;28.10;;;16.43;;
56343;SDS011;42245;42.058;24.700;2024-01-10T12:21:50;19.37;;;10.63;;
56343;SDS011;42245;42.058;24.700;2024-01-10T12:24:17;19.23;;;12.13;;
56343;SDS011;42245;42.058;24.700;2024-01-10T12:26:43;20.77;;;11.43;;
56343;SDS011;42245;42.058;24.700;2024-01-10T12:29:12;23.47;;;13.43;;
56343;SDS011;42245;42.058;24.700;2024-01-10T12:31:38;21.67;;;12.13;;
56343;SDS011;42245;42.058;24.700;2024-01-10T12:34:04;21.13;;;11.70;;
56343;SDS011;42245;42.058;24.700;2024-01-10T12:36:32;21.33;;;12.60;;
56343;SDS011;42245;42.058;24.700;2024-01-10T12:38:57;21.37;;;13.23;;
56343;SDS011;42245;42.058;24.700;2024-01-10T12:41:23;24.33;;;13.73;;
56343;SDS011;42245;42.058;24.700;2024-01-10T12:43:49;24.10;;;12.50;;
56343;SDS011;42245;42.058;24.700;2024-01-10T12:46:17;25.80;;;14.83;;
56343;SDS011;42245;42.058;24.700;2024-01-10T12:48:42;20.87;;;12.67;;
56343;SDS011;42245;42.058;24.700;2024-01-10T12:51:12;19.93;;;12.47;;
56343;SDS011;42245;42.058;24.700;2024-01-10T12:53:43;19.60;;;11.90;;
56343;SDS011;42245;42.058;24.700;2024-01-10T12:56:09;19.10;;;11.90;;
56343;SDS011;42245;42.058;24.700;2024-01-10T12:58:39;20.53;;;11.70;;
56343;SDS011;42245;42.058;24.700;2024-01-10T13:01:08;20.70;;;12.80;;
56343;SDS011;42245;42.058;24.700;2024-01-10T13:03:34;27.27;;;14.43;;
56343;SDS011;42245;42.058;24.700;2024-01-10T13:05:59;22.70;;;13.53;;
56343;SDS011;42245;42.058;24.700;2024-01-10T13:08:25;26.20;;;16.83;;
56343;SDS011;42245;42.058;24.700;2024-01-10T13:10:50;26.23;;;14.13;;
56343;SDS011;42245;42.058;24.700;2024-01-10T13:13:16;20.30;;;12.70;;
56343;SDS011;42245;42.058;24.700;2024-01-10T13:15:43;25.53;;;14.90;;
56343;SDS011;42245;42.058;24.700;2024-01-10T13:18:09;22.10;;;13.50;;
56343;SDS011;42245;42.058;24.700;2024-01-10T13:20:38;18.37;;;11.40;;
56343;SDS011;42245;42.058;24.700;2024-01-10T13:23:04;22.67;;;12.10;;
56343;SDS011;42245;42.058;24.700;2024-01-10T13:25:30;17.67;;;11.17;;
56343;SDS011;42245;42.058;24.700;2024-01-10T13:27:55;20.77;;;11.97;;
56343;SDS011;42245;42.058;24.700;2024-01-10T13:30:22;23.67;;;13.00;;
56343;SDS011;42245;42.058;24.700;2024-01-10T13:32:48;22.50;;;12.83;;
56343;SDS011;42245;42.058;24.700;2024-01-10T13:35:13;21.23;;;13.20;;
56343;SDS011;42245;42.058;24.700;2024-01-10T13:37:39;24.87;;;15.47;;
56343;SDS011;42245;42.058;24.700;2024-01-10T13:40:08;23.13;;;13.30;;
56343;SDS011;42245;42.058;24.700;2024-01-10T13:42:43;23.43;;;12.40;;
56343;SDS011;42245;42.058;24.700;2024-01-10T13:45:09;27.77;;;14.10;;
56343;SDS011;42245;42.058;24.700;2024-01-10T13:47:41;24.03;;;13.87;;
56343;SDS011;42245;42.058;24.700;2024-01-10T13:50:06;22.13;;;12.97;;
56343;SDS011;42245;42.058;24.700;2024-01-10T13:52:33;64.63;;;32.00;;
56343;SDS011;42245;42.058;24.700;2024-01-10T13:54:59;41.47;;;24.67;;
56343;SDS011;42245;42.058;24.700;2024-01-10T13:57:25;28.93;;;16.47;;
56343;SDS011;42245;42.058;24.700;2024-01-10T13:59:51;114.43;;;61.23;;
56343;SDS011;42245;42.058;24.700;2024-01-10T14:02:16;28.30;;;16.53;;
56343;SDS011;42245;42.058;24.700;2024-01-10T14:04:44;31.37;;;19.40;;
56343;SDS011;42245;42.058;24.700;2024-01-10T14:07:10;26.93;;;15.37;;
56343;SDS011;42245;42.058;24.700;2024-01-10T14:09:36;26.23;;;14.83;;
56343;SDS011;42245;42.058;24.700;2024-01-10T14:12:01;29.63;;;16.57;;
56343;SDS011;42245;42.058;24.700;2024-01-10T14:14:27;29.00;;;16.57;;
56343;SDS011;42245;42.058;24.700;2024-01-10T14:16:52;30.20;;;16.40;;
56343;SDS011;42245;42.058;24.700;2024-01-10T14:19:18;27.90;;;15.93;;
56343;SDS011;42245;42.058;24.700;2024-01-10T14:21:44;28.10;;;16.47;;
56343;SDS011;42245;42.058;24.700;2024-01-10T14:24:10;27.80;;;17.43;;
56343;SDS011;42245;42.058;24.700;2024-01-10T14:26:36;28.70;;;16.40;;
56343;SDS011;42245;42.058;24.700;2024-01-10T14:29:02;28.83;;;16.77;;
56343;SDS011;42245;42.058;24.700;2024-01-10T14:31:28;31.13;;;17.30;;
56343;SDS011;42245;42.058;24.700;2024-01-10T14:33:53;32.43;;;18.53;;
56343;SDS011;42245;42.058;24.700;2024-01-10T14:36:19;33.93;;;20.37;;
56343;SDS011;42245;42.058;24.700;2024-01-10T14:38:45;37.73;;;21.80;;
56343;SDS011;42245;42.058;24.700;2024-01-10T14:41:10;37.10;;;21.90;;
56343;SDS011;42245;42.058;24.700;2024-01-10T14:43:36;41.80;;;22.37;;
56343;SDS011;42245;42.058;24.700;2024-01-10T14:46:03;35.33;;;20.00;;
56343;SDS011;42245;42.058;24.700;2024-01-10T14:48:30;28.20;;;16.43;;
56343;SDS011;42245;42.058;24.700;2024-01-10T14:50:56;26.77;;;15.17;;
56343;SDS011;42245;42.058;24.700;2024-01-10T14:53:21;27.40;;;14.73;;
56343;SDS011;42245;42.058;24.700;2024-01-10T14:55:47;26.33;;;14.20;;
56343;SDS011;42245;42.058;24.700;2024-01-10T14:58:12;24.53;;;13.53;;
56343;SDS011;42245;42.058;24.700;2024-01-10T15:00:39;26.83;;;13.97;;
56343;SDS011;42245;42.058;24.700;2024-01-10T15:03:08;33.47;;;14.70;;
56343;SDS011;42245;42.058;24.700;2024-01-10T15:05:33;26.20;;;14.70;;
56343;SDS011;42245;42.058;24.700;2024-01-10T15:08:00;28.53;;;14.33;;
56343;SDS011;42245;42.058;24.700;2024-01-10T15:10:26;25.40;;;14.50;;
56343;SDS011;42245;42.058;24.700;2024-01-10T15:12:52;27.58;;;14.85;;
56343;SDS011;42245;42.058;24.700;2024-01-10T15:15:18;27.38;;;15.98;;
56343;SDS011;42245;42.058;24.700;2024-01-10T15:17:44;28.37;;;15.97;;
56343;SDS011;42245;42.058;24.700;2024-01-10T15:20:10;29.00;;;15.07;;
56343;SDS011;42245;42.058;24.700;2024-01-10T15:22:35;26.20;;;14.30;;
56343;SDS011;42245;42.058;24.700;2024-01-10T15:25:04;27.27;;;13.57;;
56343;SDS011;42245;42.058;24.700;2024-01-10T15:27:30;25.07;;;13.57;;
56343;SDS011;42245;42.058;24.700;2024-01-10T15:29:55;21.80;;;12.17;;
56343;SDS011;42245;42.058;24.700;2024-01-10T15:32:21;24.90;;;12.43;;
56343;SDS011;42245;42.058;24.700;2024-01-10T15:34:46;19.30;;;11.07;;
56343;SDS011;42245;42.058;24.700;2024-01-10T15:37:12;19.03;;;10.73;;
56343;SDS011;42245;42.058;24.700;2024-01-10T15:39:39;18.53;;;9.87;;
56343;SDS011;42245;42.058;24.700;2024-01-10T15:42:05;16.57;;;9.93;;
56343;SDS011;42245;42.058;24.700;2024-01-10T15:44:31;18.20;;;9.90;;
56343;SDS011;42245;42.058;24.700;2024-01-10T15:46:56;17.17;;;9.30;;
56343;SDS011;42245;42.058;24.700;2024-01-10T15:49:22;17.40;;;9.67;;
56343;SDS011;42245;42.058;24.700;2024-01-10T15:51:48;16.80;;;8.57;;
56343;SDS011;42245;42.058;24.700;2024-01-10T15:54:14;15.90;;;8.30;;
56343;SDS011;42245;42.058;24.700;2024-01-10T15:56:40;20.20;;;9.53;;
56343;SDS011;42245;42.058;24.700;2024-01-10T15:59:06;17.67;;;9.43;;
56343;SDS011;42245;42.058;24.700;2024-01-10T16:01:32;19.73;;;9.07;;
56343;SDS011;42245;42.058;24.700;2024-01-10T16:03:58;17.17;;;9.67;;
56343;SDS011;42245;42.058;24.700;2024-01-10T16:06:23;23.27;;;10.13;;
56343;SDS011;42245;42.058;24.700;2024-01-10T16:08:49;19.17;;;10.23;;
56343;SDS011;42245;42.058;24.700;2024-01-10T16:11:14;17.90;;;9.60;;
56343;SDS011;42245;42.058;24.700;2024-01-10T16:13:39;18.00;;;9.97;;
56343;SDS011;42245;42.058;24.700;2024-01-10T16:16:06;17.50;;;9.80;;
56343;SDS011;42245;42.058;24.700;2024-01-10T16:18:34;18.77;;;10.27;;
56343;SDS011;42245;42.058;24.700;2024-01-10T16:21:00;18.47;;;9.90;;
56343;SDS011;42245;42.058;24.700;2024-01-10T16:23:26;20.87;;;10.40;;
56343;SDS011;42245;42.058;24.700;2024-01-10T16:25:51;18.47;;;9.50;;
56343;SDS011;42245;42.058;24.700;2024-01-10T16:28:17;19.97;;;11.20;;
56343;SDS011;42245;42.058;24.700;2024-01-10T16:30:42;20.13;;;10.17;;
56343;SDS011;42245;42.058;24.700;2024-01-10T16:33:08;21.47;;;9.53;;
56343;SDS011;42245;42.058;24.700;2024-01-10T16:35:34;19.03;;;9.80;;
56343;SDS011;42245;42.058;24.700;2024-01-10T16:37:59;17.17;;;9.50;;
56343;SDS011;42245;42.058;24.700;2024-01-10T16:40:25;17.37;;;9.53;;
56343;SDS011;42245;42.058;24.700;2024-01-10T16:42:50;16.60;;;9.33;;
56343;SDS011;42245;42.058;24.700;2024-01-10T16:45:16;17.83;;;8.70;;
56343;SDS011;42245;42.058;24.700;2024-01-10T16:47:42;16.57;;;8.20;;
56343;SDS011;42245;42.058;24.700;2024-01-10T16:50:07;14.47;;;8.20;;
56343;SDS011;42245;42.058;24.700;2024-01-10T16:52:34;14.37;;;7.40;;
56343;SDS011;42245;42.058;24.700;2024-01-10T16:54:59;14.33;;;7.20;;
56343;SDS011;42245;42.058;24.700;2024-01-10T16:57:25;15.70;;;7.77;;
56343;SDS011;42245;42.058;24.700;2024-01-10T16:59:50;16.13;;;7.63;;
56343;SDS011;42245;42.058;24.700;2024-01-10T17:02:16;10.70;;;6.17;;
56343;SDS011;42245;42.058;24.700;2024-01-10T17:04:41;10.07;;;5.80;;
56343;SDS011;42245;42.058;24.700;2024-01-10T17:07:07;12.43;;;6.90;;
56343;SDS011;42245;42.058;24.700;2024-01-10T17:09:34;11.73;;;5.60;;
56343;SDS011;42245;42.058;24.700;2024-01-10T17:11:59;9.60;;;5.30;;
56343;SDS011;42245;42.058;24.700;2024-01-10T17:14:25;7.87;;;4.60;;
56343;SDS011;42245;42.058;24.700;2024-01-10T17:16:51;7.27;;;4.63;;
56343;SDS011;42245;42.058;24.700;2024-01-10T17:19:16;5.97;;;3.60;;
56343;SDS011;42245;42.058;24.700;2024-01-10T17:21:42;4.97;;;3.40;;
56343;SDS011;42245;42.058;24.700;2024-01-10T17:24:07;7.73;;;3.37;;
56343;SDS011;42245;42.058;24.700;2024-01-10T17:26:33;5.53;;;3.13;;
56343;SDS011;42245;42.058;24.700;2024-01-10T17:28:58;5.00;;;2.73;;
56343;SDS011;42245;42.058;24.700;2024-01-10T17:31:24;4.77;;;3.07;;
56343;SDS011;42245;42.058;24.700;2024-01-10T17:33:51;4.37;;;2.70;;
56343;SDS011;42245;42.058;24.700;2024-01-10T17:36:16;6.07;;;2.80;;
56343;SDS011;42245;42.058;24.700;2024-01-10T17:38:42;4.53;;;2.60;;
56343;SDS011;42245;42.058;24.700;2024-01-10T17:41:07;7.03;;;3.20;;
56343;SDS011;42245;42.058;24.700;2024-01-10T17:43:33;4.60;;;3.23;;
56343;SDS011;42245;42.058;24.700;2024-01-10T17:45:58;6.60;;;3.60;;
56343;SDS011;42245;42.058;24.700;2024-01-10T17:48:24;5.77;;;3.20;;
56343;SDS011;42245;42.058;24.700;2024-01-10T17:50:49;5.43;;;3.50;;
56343;SDS011;42245;42.058;24.700;2024-01-10T17:53:15;6.37;;;3.40;;
56343;SDS011;42245;42.058;24.700;2024-01-10T17:55:40;6.13;;;3.77;;
56343;SDS011;42245;42.058;24.700;2024-01-10T17:58:05;4.60;;;3.00;;
56343;SDS011;42245;42.058;24.700;2024-01-10T18:00:31;6.00;;;3.63;;
56343;SDS011;42245;42.058;24.700;2024-01-10T18:02:56;8.30;;;3.77;;
56343;SDS011;42245;42.058;24.700;2024-01-10T18:05:22;7.37;;;3.87;;
56343;SDS011;42245;42.058;24.700;2024-01-10T18:07:48;6.00;;;3.67;;
56343;SDS011;42245;42.058;24.700;2024-01-10T18:10:15;7.43;;;3.67;;
56343;SDS011;42245;42.058;24.700;2024-01-10T18:12:43;6.37;;;3.60;;
56343;SDS011;42245;42.058;24.700;2024-01-10T18:15:09;6.73;;;3.80;;
56343;SDS011;42245;42.058;24.700;2024-01-10T18:17:34;4.63;;;3.17;;
56343;SDS011;42245;42.058;24.700;2024-01-10T18:20:01;5.00;;;3.00;;
56343;SDS011;42245;42.058;24.700;2024-01-10T18:22:26;5.27;;;3.30;;
56343;SDS011;42245;42.058;24.700;2024-01-10T18:24:52;4.90;;;2.97;;
56343;SDS011;42245;42.058;24.700;2024-01-10T18:27:17;5.23;;;3.43;;
56343;SDS011;42245;42.058;24.700;2024-01-10T18:29:43;3.80;;;2.83;;
56343;SDS011;42245;42.058;24.700;2024-01-10T18:32:08;4.93;;;3.10;;
56343;SDS011;42245;42.058;24.700;2024-01-10T18:34:34;5.17;;;3.20;;
56343;SDS011;42245;42.058;24.700;2024-01-10T18:36:59;4.73;;;2.90;;
56343;SDS011;42245;42.058;24.700;2024-01-10T18:39:26;5.50;;;3.07;;
56343;SDS011;42245;42.058;24.700;2024-01-10T18:41:51;3.50;;;2.70;;
56343;SDS011;42245;42.058;24.700;2024-01-10T18:44:17;6.23;;;3.23;;
56343;SDS011;42245;42.058;24.700;2024-01-10T18:46:42;5.03;;;3.17;;
56343;SDS011;42245;42.058;24.700;2024-01-10T18:49:08;4.70;;;3.10;;
56343;SDS011;42245;42.058;24.700;2024-01-10T18:51:34;3.73;;;2.40;;
56343;SDS011;42245;42.058;24.700;2024-01-10T18:53:59;5.27;;;3.17;;
56343;SDS011;42245;42.058;24.700;2024-01-10T18:56:25;6.50;;;3.33;;
56343;SDS011;42245;42.058;24.700;2024-01-10T18:58:51;5.37;;;3.07;;
56343;SDS011;42245;42.058;24.700;2024-01-10T19:01:16;5.47;;;3.30;;
56343;SDS011;42245;42.058;24.700;2024-01-10T19:03:42;5.50;;;3.27;;
56343;SDS011;42245;42.058;24.700;2024-01-10T19:06:08;8.20;;;4.00;;
56343;SDS011;42245;42.058;24.700;2024-01-10T19:08:34;6.07;;;3.87;;
56343;SDS011;42245;42.058;24.700;2024-01-10T19:10:59;6.77;;;3.37;;
56343;SDS011;42245;42.058;24.700;2024-01-10T19:13:25;5.53;;;3.20;;
56343;SDS011;42245;42.058;24.700;2024-01-10T19:15:50;7.27;;;3.47;;
56343;SDS011;42245;42.058;24.700;2024-01-10T19:18:16;5.87;;;3.00;;
56343;SDS011;42245;42.058;24.700;2024-01-10T19:20:42;5.50;;;3.30;;
56343;SDS011;42245;42.058;24.700;2024-01-10T19:23:07;4.73;;;3.00;;